Los Angeles Regional Airport Weather

KWHP 200255Z 00000KT 10SM OVC050 14/07 A2989

KAPV 191256Z AUTO 05004KT 10SM FEW075 SCT090 BKN110 18/18 A2996 RMK AO2 SLP144 T01830178 $

KAVX 200851Z AUTO 27019G26KT 10SM BKN008 BKN012 11/10 A2988 RMK AO2 PK WND 27029/0814 CIG 005V010 SLP112 T01060100 56012 $

KBFL 200854Z AUTO 01004KT 10SM FEW011 SCT045 OVC070 11/07 A2988 RMK AO2 SLP114 60000 T01110072 56002

KBUR 200853Z 26005KT 10SM OVC023 12/08 A2985 RMK AO2 SLP099 T01170083 58005 $

KCMA 200938Z 27008KT 10SM BKN012 13/10 A2985 RMK AO2 T01280100

KCNO 200853Z AUTO 26006KT 10SM FEW018 BKN031 BKN041 11/11 A2986 RMK AO2 SLP111 60000 T01110106 56010

KEMT 200250Z 23010G18KT 10SM BKN050 BKN075 15/09 A2987

KFUL 200853Z AUTO VRB05KT 10SM FEW022 SCT028 14/09 A2985 RMK AO2 SLP106 T01440089 58012

KHHR 200937Z AUTO 28006KT 10SM BKN019 BKN080 14/10 A2986 RMK AO2 RAB16E33 P0000 T01390100 $

KL35 200935Z AUTO 25004KT 3SM -SN SCT005 OVC011 00/M01 A2978 RMK AO2

KLAX 200853Z 27016KT 10SM FEW016 FEW030 SCT080 14/10 A2985 RMK AO2 SLP108 T01390100 58011 $

KLGB 200853Z AUTO 29011KT 10SM SCT022 SCT037 14/09 A2986 RMK AO2 SLP112 T01440094 56008

KONT 200930Z 24005KT 10SM BKN012 BKN022 OVC029 13/12 A2984 RMK AO2 T01330117

KOXR 200851Z AUTO 27015KT 10SM FEW070 13/11 A2986 RMK AO2 SLP109 T01280106 58009

KPMD 200853Z AUTO 27009KT 10SM FEW034 BKN042 OVC050 08/05 A2983 RMK AO2 SLP092 T00830050 58005

KPOC 200347Z 22009KT 10SM SCT021 BKN026 OVC042 13/09 A2988 RMK LAST

KRAL 200853Z AUTO 26010KT 10SM BKN042 11/09 A2985 RMK AO2 SLP098 6//// T01110089 56013 PNO $

KSMO 200851Z AUTO 00000KT 10SM FEW080 12/09 A2986 RMK AO2 SLP110 T01220089 58011

KSNA 200900Z AUTO 25006KT 10SM FEW023 BKN032 14/09 A2987 RMK AO2 T01440089

KTOA 200247Z 24014KT 10SM FEW018 OVC026 16/11 A2988 RMK LAST

KTRM 190652Z AUTO 34019G27KT 10SM CLR 23/04 A2976 RMK AO2 PK WND 34027/0644 SLP078 T02330044

KVNY 200943Z AUTO 30004KT 10SM BKN020 BKN075 12/08 A2984 RMK AO2 T01170078

KWJF 200856Z AUTO 25022KT 10SM FEW060 08/03 A2981 RMK AO2 PK WND 25026/0856 SLP095 T00780033 58013 $



How to read METARs